Fort Pike — WAA9418 — position and weather

sailwx.info

Track history (hours):
 
Tides and Currents Weather Stations Pressure Air Temp Water Temp Dewpoint Dewpoint Depression Visibility Wind Speed Wind Dir Waves Ship Positions

Fort Pike

More information available from US FCC via Universal Licensing System and Coast Guard Vessel Documentation Center.

Last reported at 2014-Jul-31 21:33 UTC. Time now 2014-Aug-01 01:45 UTC.
Position N 36°50' W 076°16'.

Length 18 m; draft 10.5 m.

Type: Tug. MMSI: 366948310.

Date/timePositionNaut miles runAvg speedWind from/ knotsBaromVisibWave heightAir tempDewpointWater temp
2014-Jul-31 21:33N 36°50' W 076°16'7 6.4
2014-Jul-31 20:31N 36°56' W 076°20'6 1.6
2014-Jul-31 16:26N 36°50' W 076°17'1 0.2
2014-Jul-31 13:11N 36°50' W 076°17'0 0.0
2014-Jul-31 12:30N 36°50' W 076°17'0 0.0
2014-Jul-31 11:31N 36°50' W 076°17'1 1.3
2014-Jul-31 10:27N 36°50' W 076°16'1 0.9
2014-Jul-31 09:28N 36°50' W 076°15'1 0.9
2014-Jul-31 08:32N 36°50' W 076°16'2 2.3
2014-Jul-31 07:30N 36°51' W 076°19'4 3.6
2014-Jul-31 06:29N 36°55' W 076°20'3 3.1
2014-Jul-31 05:33N 36°57' W 076°22'4 3.2
2014-Jul-31 04:15N 36°59' W 076°27'3 3.2
2014-Jul-31 03:15N 37°01' W 076°30'7 0.3
2014-Jul-30 02:25N 36°57' W 076°23'5 4.5
2014-Jul-30 01:16N 36°53' W 076°20'1 1.5
2014-Jul-30 00:33N 36°51' W 076°20'4 3.8
2014-Jul-29 23:31N 36°50' W 076°15'0 0.0
2014-Jul-29 22:33N 36°50' W 076°15'2 1.8
2014-Jul-29 21:32N 36°50' W 076°17'0 0.1
2014-Jul-29 20:32N 36°50' W 076°18'1 0.8
2014-Jul-29 19:20N 36°50' W 076°16'1 0.0
2014-Jul-27 16:05N 36°50' W 076°16'1 2.7
2014-Jul-27 15:33N 36°51' W 076°17'0 0.2
2014-Jul-27 14:19N 36°51' W 076°18'1 1.3
2014-Jul-27 13:30N 36°50' W 076°18'0 0.5
2014-Jul-27 12:33N 36°49' W 076°17'2 1.6
2014-Jul-27 11:25N 36°50' W 076°16'4 3.9
2014-Jul-27 10:17N 36°53' W 076°20'4 5.0
2014-Jul-27 09:32N 36°57' W 076°21'22 1.0
2014-Jul-26 11:23N 37°12' W 076°41'13 2.6
2014-Jul-26 06:25N 37°02' W 076°32'4 3.6
2014-Jul-26 05:22N 36°60' W 076°28'3 3.9
2014-Jul-26 04:33N 36°57' W 076°25'8 3.6
2014-Jul-26 02:29N 36°52' W 076°19'0 0.4
2014-Jul-26 01:29N 36°51' W 076°19'1 1.4
2014-Jul-26 00:32N 36°51' W 076°18'2 2.0
2014-Jul-25 23:30N 36°51' W 076°20'4 3.5
2014-Jul-25 22:30N 36°50' W 076°16'4 3.7
2014-Jul-25 21:24N 36°47' W 076°18'2 0.1
2014-Jul-24 16:33N 36°48' W 076°17'3 2.6
2014-Jul-24 15:33N 36°50' W 076°16'1 1.4
2014-Jul-24 14:33N 36°50' W 076°17'2 1.9
2014-Jul-24 13:22N 36°50' W 076°15'2 1.8
2014-Jul-24 12:30N 36°50' W 076°17'3 3.0
2014-Jul-24 11:34N 36°52' W 076°19'2 1.5
2014-Jul-24 10:32N 36°53' W 076°20'3 3.1
2014-Jul-24 09:33N 36°56' W 076°21'3 2.1
2014-Jul-24 08:21N 36°57' W 076°24'4 4.3
2014-Jul-24 07:29N 36°59' W 076°27'1 0.0
2014-Jul-23 06:27N 36°60' W 076°28'3 3.1
2014-Jul-23 05:30N 36°58' W 076°26'4 4.0
2014-Jul-23 04:33N 36°57' W 076°21'8 3.8
2014-Jul-23 02:31N 36°50' W 076°16'1 1.4
2014-Jul-23 01:31N 36°50' W 076°17'0 0.0
2014-Jul-23 00:27N 36°50' W 076°17'3 2.1
2014-Jul-22 23:06N 36°52' W 076°20'4 6.8
2014-Jul-22 22:32N 36°56' W 076°20'5 4.2
2014-Jul-22 21:23N 37°01' W 076°21'1 0.9
2014-Jul-22 20:30N 37°01' W 076°20'1 1.2
2014-Jul-22 19:27N 36°60' W 076°21'0 0.0
2014-Jul-22 18:27N 36°60' W 076°21'1 1.4
2014-Jul-22 17:30N 37°01' W 076°21'11 0.8
2014-Jul-22 04:23N 36°50' W 076°17'1 1.5
2014-Jul-22 03:33N 36°51' W 076°18'1 0.9
2014-Jul-22 02:21N 36°50' W 076°17'0 0.0
2014-Jul-22 01:22N 36°50' W 076°17'0 0.0
2014-Jul-22 00:26N 36°50' W 076°17'1 0.8
2014-Jul-21 22:32N 36°50' W 076°16'  
Track history (hours):
 
Tides and Currents Weather Stations Pressure Air Temp Water Temp Dewpoint Dewpoint Depression Visibility Wind Speed Wind Dir Waves Ship Positions

Fort Pike

More information available from US FCC via Universal Licensing System and Coast Guard Vessel Documentation Center.

Last reported at 2014-Jul-31 21:33 UTC. Time now 2014-Aug-01 01:45 UTC.
Position N 36°50' W 076°16'.

Length 18 m; draft 10.5 m.

Type: Tug. MMSI: 366948310.

Date/timePositionNaut miles runAvg speedWind from/ knotsBaromVisibWave heightAir tempDewpointWater temp
2014-Jul-31 21:33N 36°50' W 076°16'7 6.4
2014-Jul-31 20:31N 36°56' W 076°20'6 1.6
2014-Jul-31 16:26N 36°50' W 076°17'1 0.2
2014-Jul-31 13:11N 36°50' W 076°17'0 0.0
2014-Jul-31 12:30N 36°50' W 076°17'0 0.0
2014-Jul-31 11:31N 36°50' W 076°17'1 1.3
2014-Jul-31 10:27N 36°50' W 076°16'1 0.9
2014-Jul-31 09:28N 36°50' W 076°15'1 0.9
2014-Jul-31 08:32N 36°50' W 076°16'2 2.3
2014-Jul-31 07:30N 36°51' W 076°19'4 3.6
2014-Jul-31 06:29N 36°55' W 076°20'3 3.1
2014-Jul-31 05:33N 36°57' W 076°22'4 3.2
2014-Jul-31 04:15N 36°59' W 076°27'3 3.2
2014-Jul-31 03:15N 37°01' W 076°30'7 0.3
2014-Jul-30 02:25N 36°57' W 076°23'5 4.5
2014-Jul-30 01:16N 36°53' W 076°20'1 1.5
2014-Jul-30 00:33N 36°51' W 076°20'4 3.8
2014-Jul-29 23:31N 36°50' W 076°15'0 0.0
2014-Jul-29 22:33N 36°50' W 076°15'2 1.8
2014-Jul-29 21:32N 36°50' W 076°17'0 0.1
2014-Jul-29 20:32N 36°50' W 076°18'1 0.8
2014-Jul-29 19:20N 36°50' W 076°16'1 0.0
2014-Jul-27 16:05N 36°50' W 076°16'1 2.7
2014-Jul-27 15:33N 36°51' W 076°17'0 0.2
2014-Jul-27 14:19N 36°51' W 076°18'1 1.3
2014-Jul-27 13:30N 36°50' W 076°18'0 0.5
2014-Jul-27 12:33N 36°49' W 076°17'2 1.6
2014-Jul-27 11:25N 36°50' W 076°16'4 3.9
2014-Jul-27 10:17N 36°53' W 076°20'4 5.0
2014-Jul-27 09:32N 36°57' W 076°21'22 1.0
2014-Jul-26 11:23N 37°12' W 076°41'13 2.6
2014-Jul-26 06:25N 37°02' W 076°32'4 3.6
2014-Jul-26 05:22N 36°60' W 076°28'3 3.9
2014-Jul-26 04:33N 36°57' W 076°25'8 3.6
2014-Jul-26 02:29N 36°52' W 076°19'0 0.4
2014-Jul-26 01:29N 36°51' W 076°19'1 1.4
2014-Jul-26 00:32N 36°51' W 076°18'2 2.0
2014-Jul-25 23:30N 36°51' W 076°20'4 3.5
2014-Jul-25 22:30N 36°50' W 076°16'4 3.7
2014-Jul-25 21:24N 36°47' W 076°18'2 0.1
2014-Jul-24 16:33N 36°48' W 076°17'3 2.6
2014-Jul-24 15:33N 36°50' W 076°16'1 1.4
2014-Jul-24 14:33N 36°50' W 076°17'2 1.9
2014-Jul-24 13:22N 36°50' W 076°15'2 1.8
2014-Jul-24 12:30N 36°50' W 076°17'3 3.0
2014-Jul-24 11:34N 36°52' W 076°19'2 1.5
2014-Jul-24 10:32N 36°53' W 076°20'3 3.1
2014-Jul-24 09:33N 36°56' W 076°21'3 2.1
2014-Jul-24 08:21N 36°57' W 076°24'4 4.3
2014-Jul-24 07:29N 36°59' W 076°27'1 0.0
2014-Jul-23 06:27N 36°60' W 076°28'3 3.1
2014-Jul-23 05:30N 36°58' W 076°26'4 4.0
2014-Jul-23 04:33N 36°57' W 076°21'8 3.8
2014-Jul-23 02:31N 36°50' W 076°16'1 1.4
2014-Jul-23 01:31N 36°50' W 076°17'0 0.0
2014-Jul-23 00:27N 36°50' W 076°17'3 2.1
2014-Jul-22 23:06N 36°52' W 076°20'4 6.8
2014-Jul-22 22:32N 36°56' W 076°20'5 4.2
2014-Jul-22 21:23N 37°01' W 076°21'1 0.9
2014-Jul-22 20:30N 37°01' W 076°20'1 1.2
2014-Jul-22 19:27N 36°60' W 076°21'0 0.0
2014-Jul-22 18:27N 36°60' W 076°21'1 1.4
2014-Jul-22 17:30N 37°01' W 076°21'11 0.8
2014-Jul-22 04:23N 36°50' W 076°17'1 1.5
2014-Jul-22 03:33N 36°51' W 076°18'1 0.9
2014-Jul-22 02:21N 36°50' W 076°17'0 0.0
2014-Jul-22 01:22N 36°50' W 076°17'0 0.0
2014-Jul-22 00:26N 36°50' W 076°17'1 0.8
2014-Jul-21 22:32N 36°50' W 076°16'  

Dump ship's entire track history